Time;durP1;ratioP1;P1;durP2;ratioP2;P2;SDS_P1;SDS_P2;PMS_P1;PMS_P2;Temp;Humidity;BMP_temperature;BMP_pressure;BME280_temperature;BME280_humidity;BME280_pressure;Samples;Min_cycle;Max_cycle;Signal;HPM_P1;HPM_P2
2021/05/27 00:00:21;;;;;;;16.70;14.67;;;;;;;19.86;67.79;94981.41;5072961;28;20452;-76
2021/05/27 00:02:48;;;;;;;18.83;15.73;;;;;;;20.11;66.12;94985.97;5074102;28;20445;-73
2021/05/27 00:05:15;;;;;;;17.17;15.33;;;;;;;20.25;66.45;94970.69;5065846;28;20943;-75
2021/05/27 00:07:43;;;;;;;18.00;15.90;;;;;;;20.47;65.34;94978.50;5065593;28;20525;-73
2021/05/27 00:10:12;;;;;;;17.40;15.57;;;;;;;20.69;64.86;94986.28;5059115;28;20852;-75
2021/05/27 00:12:39;;;;;;;18.03;16.13;;;;;;;20.54;64.60;94981.47;5075752;28;20433;-73
2021/05/27 00:15:08;;;;;;;19.33;16.17;;;;;;;20.51;64.59;94979.41;5057953;28;20447;-74
2021/05/27 00:17:35;;;;;;;19.00;16.43;;;;;;;20.64;64.40;94977.69;5061421;28;21092;-75
2021/05/27 00:20:04;;;;;;;17.60;15.03;;;;;;;20.75;64.55;94987.69;5065615;28;20463;-76
2021/05/27 00:22:31;;;;;;;18.70;15.37;;;;;;;20.63;64.48;94981.44;5060733;28;20481;-76
2021/05/27 00:24:58;;;;;;;18.63;16.83;;;;;;;20.68;64.80;94990.06;5057623;28;20447;-73
2021/05/27 00:27:31;;;;;;;17.23;15.17;;;;;;;20.49;64.99;94973.63;5057890;28;20834;-73
2021/05/27 00:29:59;;;;;;;19.37;16.53;;;;;;;20.57;64.83;94977.38;5064780;28;20998;-74
2021/05/27 00:32:26;;;;;;;20.13;17.40;;;;;;;20.56;65.10;94971.28;5064338;28;20983;-75
2021/05/27 00:34:53;;;;;;;19.50;17.40;;;;;;;20.51;65.35;94979.41;5051399;28;20537;-73
2021/05/27 00:37:20;;;;;;;18.67;16.63;;;;;;;20.54;65.11;94973.47;5070482;28;20242;-74
2021/05/27 00:39:47;;;;;;;18.20;16.23;;;;;;;20.54;65.12;94973.47;5057149;28;20439;-76
2021/05/27 00:42:14;;;;;;;18.77;16.63;;;;;;;20.63;65.16;94966.25;5063916;28;20513;-72
2021/05/27 00:44:41;;;;;;;19.50;16.93;;;;;;;20.54;65.27;94973.47;5051349;28;20439;-75
2021/05/27 00:47:10;;;;;;;18.90;16.10;;;;;;;20.32;65.98;94960.34;5068654;28;20228;-76
2021/05/27 00:49:39;;;;;;;22.27;17.53;;;;;;;20.26;66.03;94966.13;5069367;28;20541;-72
2021/05/27 00:52:06;;;;;;;19.33;17.27;;;;;;;20.36;66.02;94981.78;5071625;28;20438;-74
2021/05/27 00:54:34;;;;;;;20.37;18.13;;;;;;;20.57;65.42;94994.13;5070244;28;21042;-77
2021/05/27 00:57:04;;;;;;;21.13;16.90;;;;;;;20.75;64.62;94990.34;5070469;28;20442;-77
2021/05/27 00:59:32;;;;;;;22.13;17.63;;;;;;;20.32;65.96;94981.63;5070850;28;20811;-73
2021/05/27 01:01:59;;;;;;;26.20;18.13;;;;;;;20.35;65.76;94985.53;5070468;28;20507;-74
2021/05/27 01:04:26;;;;;;;19.10;16.97;;;;;;;20.43;65.97;94988.22;5070325;28;21074;-74
2021/05/27 01:06:53;;;;;;;20.60;18.20;;;;;;;20.67;65.61;94991.16;5049118;28;20453;-75
2021/05/27 01:09:20;;;;;;;20.90;17.60;;;;;;;20.68;65.54;94982.06;5063345;28;20867;-76
2021/05/27 01:11:48;;;;;;;20.73;18.57;;;;;;;20.40;66.44;94978.19;5069650;28;20442;-75
2021/05/27 01:15:27;;;;;;;19.93;17.87;;;;;;;20.31;66.77;94974.72;5062816;28;20443;-73
2021/05/27 01:17:07;;;;;;;19.43;17.43;;;;;;;20.36;66.07;94952.53;5077174;28;20469;-73
2021/05/27 01:19:36;;;;;;;20.47;18.23;;;;;;;20.32;66.20;94963.00;5056102;28;20454;-75
2021/05/27 01:22:03;;;;;;;19.60;17.70;;;;;;;20.26;66.57;94969.56;5063695;28;20453;-73
2021/05/27 01:24:34;;;;;;;20.20;18.10;;;;;;;20.26;66.07;94960.81;5069311;28;20458;-73
2021/05/27 01:27:02;;;;;;;22.07;18.80;;;;;;;20.34;65.80;94968.81;5070160;28;20430;-76
2021/05/27 01:29:29;;;;;;;19.20;17.30;;;;;;;20.41;66.19;94969.09;5051918;28;20474;-74
2021/05/27 01:31:57;;;;;;;20.23;18.03;;;;;;;20.36;65.99;94955.97;5053680;28;20445;-75
2021/05/27 01:34:24;;;;;;;20.67;18.43;;;;;;;20.23;66.66;94954.25;5058035;28;20442;-76
2021/05/27 01:36:53;;;;;;;20.60;17.70;;;;;;;20.23;66.55;94946.28;5068836;28;20540;-75
2021/05/27 01:39:22;;;;;;;20.40;17.67;;;;;;;20.51;65.98;94936.81;5070439;28;20515;-74
2021/05/27 01:41:51;;;;;;;20.33;18.23;;;;;;;20.34;66.16;94944.06;5067190;28;20188;-76
2021/05/27 01:44:19;;;;;;;21.00;18.07;;;;;;;20.61;65.48;94938.38;5058936;28;20499;-77
2021/05/27 01:46:46;;;;;;;20.57;17.73;;;;;;;20.64;65.49;94935.88;5054438;28;20192;-72
2021/05/27 01:49:16;;;;;;;22.33;18.27;;;;;;;20.55;65.51;94932.44;5067569;28;20997;-73
2021/05/27 01:51:50;;;;;;;20.00;17.90;;;;;;;20.65;65.36;94944.63;5069731;28;20529;-74
2021/05/27 01:54:18;;;;;;;18.57;16.70;;;;;;;20.77;65.02;94940.22;5069206;28;20426;-75
2021/05/27 01:56:46;;;;;;;17.87;16.07;;;;;;;20.35;65.77;94935.75;5070045;28;20541;-74
2021/05/27 01:59:13;;;;;;;18.73;16.33;;;;;;;20.30;66.37;94954.56;5066791;28;20818;-73
2021/05/27 02:01:43;;;;;;;18.87;16.90;;;;;;;20.38;66.29;94953.78;5049775;28;20200;-71
2021/05/27 02:04:10;;;;;;;16.90;14.93;;;;;;;20.70;65.90;94947.91;5064627;28;20473;-73
2021/05/27 02:06:38;;;;;;;17.43;15.63;;;;;;;20.44;66.68;94946.38;5050356;28;20960;-73
2021/05/27 02:09:11;;;;;;;16.60;14.93;;;;;;;20.60;66.12;94953.56;5050329;28;20573;-72
2021/05/27 02:11:49;;;;;;;15.57;13.93;;;;;;;20.29;66.60;94938.91;5070310;28;20963;-75
2021/05/27 02:14:22;;;;;;;17.47;13.83;;;;;;;20.03;67.06;94949.53;5073971;28;20858;-73
2021/05/27 02:16:49;;;;;;;16.43;14.00;;;;;;;20.22;66.75;94950.00;5055596;28;20478;-72
2021/05/27 02:19:17;;;;;;;15.83;12.77;;;;;;;20.10;67.39;94955.16;5049945;28;20521;-77
2021/05/27 02:21:47;;;;;;;18.90;13.13;;;;;;;20.38;66.54;94953.78;5052219;28;20449;-77
2021/05/27 02:24:23;;;;;;;18.53;12.20;;;;;;;20.54;65.57;94946.88;5057886;28;20549;-75
2021/05/27 02:26:52;;;;;;;14.83;13.23;;;;;;;20.50;65.79;94951.25;5078599;28;20437;-71
2021/05/27 02:29:19;;;;;;;16.07;12.73;;;;;;;20.30;66.29;94941.25;5069734;28;20470;-74
2021/05/27 02:31:46;;;;;;;14.17;12.77;;;;;;;20.25;66.30;94952.06;5071104;28;20450;-71
2021/05/27 02:34:17;;;;;;;14.20;12.80;;;;;;;20.36;65.72;94961.28;5053596;28;20196;-73
2021/05/27 02:36:46;;;;;;;14.87;12.53;;;;;;;20.44;65.85;94962.34;5067219;28;20897;-70
2021/05/27 02:39:13;;;;;;;14.87;13.30;;;;;;;20.46;65.77;94955.63;5072510;28;20496;-71
2021/05/27 02:41:48;;;;;;;15.97;12.97;;;;;;;20.46;65.56;94944.97;5072002;28;20430;-76
2021/05/27 02:44:18;;;;;;;14.13;12.47;;;;;;;20.40;65.67;94954.22;5063495;28;20435;-73
2021/05/27 02:46:51;;;;;;;13.80;12.40;;;;;;;20.32;65.86;94955.03;5069212;28;20438;-74
2021/05/27 02:49:19;;;;;;;19.13;11.80;;;;;;;20.29;65.47;94947.66;5073049;28;20503;-72
2021/05/27 02:51:47;;;;;;;13.33;12.00;;;;;;;20.41;65.22;94958.47;5059081;28;20439;-73
2021/05/27 02:54:15;;;;;;;13.30;11.97;;;;;;;20.38;65.79;94950.31;5072577;28;20438;-72
2021/05/27 02:56:43;;;;;;;15.37;12.90;;;;;;;20.27;66.29;94944.56;5071481;28;20438;-75
2021/05/27 02:59:16;;;;;;;16.03;12.97;;;;;;;20.10;66.28;94937.31;5057445;28;20477;-73
2021/05/27 03:01:43;;;;;;;13.50;12.20;;;;;;;20.32;65.68;94947.03;5071524;28;20488;-75
2021/05/27 03:04:10;;;;;;;13.43;12.03;;;;;;;20.25;65.29;94936.09;5067529;28;20468;-75
2021/05/27 03:06:37;;;;;;;14.03;12.53;;;;;;;20.44;65.10;94944.50;5056483;28;20532;-72
2021/05/27 03:09:06;;;;;;;14.00;12.60;;;;;;;20.37;65.18;94940.75;5071842;28;20456;-74
2021/05/27 03:11:34;;;;;;;13.70;12.10;;;;;;;20.09;65.66;94942.94;5069516;28;20473;-75
2021/05/27 03:14:04;;;;;;;13.33;11.93;;;;;;;20.25;65.16;94945.94;5052332;28;20451;-76
2021/05/27 03:16:45;;;;;;;15.47;11.73;;;;;;;20.18;65.40;94959.75;5068952;28;20509;-74
2021/05/27 03:19:12;;;;;;;12.93;11.73;;;;;;;20.07;65.94;94953.91;5062591;28;20489;-74
2021/05/27 03:21:39;;;;;;;12.60;11.30;;;;;;;19.89;65.87;94946.25;5069966;28;20435;-75
2021/05/27 03:24:06;;;;;;;12.57;11.23;;;;;;;20.15;65.33;94949.66;5071232;28;20441;-74
2021/05/27 03:26:37;;;;;;;17.37;11.30;;;;;;;19.86;65.91;94968.13;5070523;28;20449;-75
2021/05/27 03:29:04;;;;;;;13.77;12.30;;;;;;;20.12;64.98;94961.75;5065721;28;20820;-75
2021/05/27 03:31:31;;;;;;;14.57;11.10;;;;;;;19.99;64.93;94959.22;5068082;28;20455;-73
2021/05/27 03:33:58;;;;;;;12.17;11.07;;;;;;;19.82;64.61;94953.88;5068685;28;20558;-74
2021/05/27 03:36:27;;;;;;;12.37;11.03;;;;;;;20.13;63.96;94965.16;5063697;28;20861;-74
2021/05/27 03:38:54;;;;;;;12.47;10.73;;;;;;;20.17;63.48;94963.47;5064949;28;20954;-71
2021/05/27 03:41:24;;;;;;;11.40;10.30;;;;;;;20.35;63.29;94974.88;5064355;28;20450;-75
2021/05/27 03:43:55;;;;;;;12.07;10.87;;;;;;;20.17;63.13;94972.25;5057120;28;20430;-74
2021/05/27 03:46:22;;;;;;;12.73;9.90;;;;;;;20.27;61.41;94962.38;5059551;28;20447;-74
2021/05/27 03:48:49;;;;;;;9.77;8.77;;;;;;;19.90;62.05;94969.06;5070600;28;20441;-75
2021/05/27 03:51:16;;;;;;;10.33;9.33;;;;;;;20.01;62.66;94952.50;5061477;28;20454;-75
2021/05/27 03:53:43;;;;;;;13.23;10.10;;;;;;;20.07;63.37;94980.50;5064986;28;20443;-74
2021/05/27 03:56:11;;;;;;;12.83;8.47;;;;;;;19.85;61.85;94963.91;5070899;28;20204;-75
2021/05/27 04:01:35;;;;;;;9.70;8.80;;;;;;;20.27;61.52;94957.84;5067960;28;20439;-73
2021/05/27 04:07:11;;;;;;;9.70;8.50;;;;;;;20.24;61.93;94963.78;5071417;28;20462;-75
2021/05/27 04:09:39;;;;;;;8.70;7.77;;;;;;;20.26;61.70;94961.59;5057187;28;20439;-73
2021/05/27 04:17:42;;;;;;;9.10;8.20;;;;;;;20.54;60.70;94959.38;5050971;28;20489;-73
2021/05/27 04:20:10;;;;;;;10.23;8.33;;;;;;;20.35;61.49;94965.03;5065028;28;20518;-75
2021/05/27 04:22:40;;;;;;;11.57;8.47;;;;;;;20.48;61.97;94973.94;5051699;28;20439;-73
2021/05/27 04:25:08;;;;;;;12.60;8.97;;;;;;;20.76;60.65;94969.84;5066485;28;20515;-74
2021/05/27 04:27:36;;;;;;;8.80;7.50;;;;;;;20.62;59.45;94970.00;5062379;28;20446;-76
2021/05/27 04:30:15;;;;;;;10.13;7.43;;;;;;;20.66;59.18;94980.81;5052452;28;20933;-75
2021/05/27 04:35:36;;;;;;;12.03;9.37;;;;;;;20.10;59.51;94981.75;5070580;28;20537;-73
2021/05/27 04:38:11;;;;;;;10.77;9.10;;;;;;;20.28;59.90;94979.91;5065510;28;20445;-74
2021/05/27 04:40:40;;;;;;;25.70;10.70;;;;;;;20.49;60.19;94981.59;5050850;28;20466;-73
2021/05/27 04:43:07;;;;;;;20.07;15.63;;;;;;;20.23;59.90;94972.88;5064442;28;20483;-73
2021/05/27 04:45:35;;;;;;;110.20;95.13;;;;;;;20.52;60.97;94988.97;5066258;28;20446;-73
2021/05/27 04:48:08;;;;;;;73.67;63.30;;;;;;;20.53;60.86;94982.56;5070884;28;20449;-72
2021/05/27 04:50:39;;;;;;;15.23;10.77;;;;;;;20.65;60.45;94987.25;5070579;28;20872;-77
2021/05/27 04:53:07;;;;;;;16.30;10.70;;;;;;;20.67;60.18;94983.19;5075410;28;20935;-79
2021/05/27 04:55:35;;;;;;;21.50;12.70;;;;;;;20.77;60.45;94988.16;5072515;28;20558;-79
2021/05/27 04:58:03;;;;;;;73.70;60.93;;;;;;;21.04;60.74;94985.13;5070691;28;20454;-70
2021/05/27 05:00:31;;;;;;;105.73;94.43;;;;;;;21.13;60.39;94988.56;5066902;28;20215;-70
2021/05/27 05:02:58;;;;;;;16.27;13.40;;;;;;;21.02;59.64;94990.00;5051892;28;20561;-79
2021/05/27 05:05:27;;;;;;;14.47;9.43;;;;;;;20.79;59.26;94975.31;5062796;28;20435;-75
2021/05/27 05:07:55;;;;;;;11.57;9.17;;;;;;;20.96;58.80;94988.59;5051168;28;20725;-78
2021/05/27 05:10:24;;;;;;;12.13;9.23;;;;;;;21.09;59.21;94987.63;5070807;28;20188;-70
2021/05/27 05:12:52;;;;;;;21.17;9.30;;;;;;;21.06;59.49;94974.94;5057553;28;20204;-72
2021/05/27 05:15:24;;;;;;;15.63;11.57;;;;;;;21.04;59.73;94982.47;5049022;28;20459;-78
2021/05/27 05:17:54;;;;;;;19.23;14.50;;;;;;;20.53;59.65;94982.56;5063138;28;20468;-73
2021/05/27 05:20:32;;;;;;;33.80;26.47;;;;;;;20.40;60.81;94977.41;5070681;28;20442;-72
2021/05/27 05:23:00;;;;;;;139.30;118.57;;;;;;;20.85;59.91;94974.06;5071012;28;20449;-74
2021/05/27 05:25:31;;;;;;;39.93;29.53;;;;;;;20.95;60.57;94973.69;5067462;28;20192;-77
2021/05/27 05:27:58;;;;;;;35.27;14.93;;;;;;;20.35;61.46;94974.88;5058932;28;20259;-77
2021/05/27 05:30:27;;;;;;;24.83;16.03;;;;;;;20.78;61.07;94979.06;5072894;28;20510;-76
2021/05/27 05:32:55;;;;;;;26.13;16.17;;;;;;;21.20;60.64;94977.41;5052663;28;20204;-74
2021/05/27 05:35:22;;;;;;;22.30;15.70;;;;;;;21.33;60.40;94988.97;5051755;28;20238;-75
2021/05/27 05:37:52;;;;;;;18.27;13.67;;;;;;;21.16;60.42;94984.47;5070559;28;20195;-73
2021/05/27 05:40:23;;;;;;;23.10;15.47;;;;;;;21.39;60.14;94971.66;5069649;28;21064;-74
2021/05/27 05:42:51;;;;;;;21.23;15.67;;;;;;;21.36;61.01;94993.66;5070251;28;20199;-74
2021/05/27 05:45:19;;;;;;;22.00;14.60;;;;;;;21.41;61.07;94990.78;5069682;28;20669;-74
2021/05/27 05:47:48;;;;;;;16.97;14.33;;;;;;;21.61;60.90;94984.75;5069990;28;20620;-73
2021/05/27 05:51:03;;;;;;;21.40;13.47;;;;;;;21.56;60.97;94991.06;5069676;28;20198;-73
2021/05/27 05:53:06;;;;;;;17.67;13.43;;;;;;;21.35;60.88;94966.19;5062778;28;20195;-73
2021/05/27 05:55:33;;;;;;;20.53;14.77;;;;;;;21.57;60.43;94994.50;5065673;28;20216;-74
2021/05/27 05:58:02;;;;;;;20.53;14.83;;;;;;;21.20;61.18;94996.06;5058810;28;20221;-75
2021/05/27 06:00:30;;;;;;;21.43;15.03;;;;;;;21.17;60.91;94977.28;5070048;28;20224;-74
2021/05/27 06:02:59;;;;;;;18.57;14.53;;;;;;;21.15;61.10;94994.34;5071817;28;20206;-72
2021/05/27 06:05:45;;;;;;;23.00;15.57;;;;;;;21.58;60.17;94985.38;5074233;28;20292;-73
2021/05/27 06:08:30;;;;;;;19.60;13.37;;;;;;;21.17;58.52;94981.50;5067943;28;20207;-74
2021/05/27 06:10:58;;;;;;;14.97;12.63;;;;;;;20.76;58.52;94986.59;5065799;28;20445;-73
2021/05/27 06:13:25;;;;;;;17.67;12.97;;;;;;;21.23;60.19;94979.44;5069236;28;20688;-73
2021/05/27 06:15:52;;;;;;;18.57;11.90;;;;;;;21.52;58.25;94976.00;5064146;28;20206;-74
2021/05/27 06:18:19;;;;;;;16.20;11.20;;;;;;;21.52;56.95;94976.78;5070508;28;20195;-74
2021/05/27 06:21:06;;;;;;;21.13;12.93;;;;;;;21.97;57.67;94977.81;5054116;28;20207;-74
2021/05/27 06:23:42;;;;;;;13.97;11.00;;;;;;;22.01;57.34;94972.59;5052623;28;20283;-75
2021/05/27 06:26:10;;;;;;;14.80;10.83;;;;;;;22.03;57.57;94965.84;5064275;28;20447;-75
2021/05/27 06:28:36;;;;;;;13.87;9.80;;;;;;;22.10;56.73;94958.09;5055285;28;20236;-74
2021/05/27 06:31:03;;;;;;;10.50;9.30;;;;;;;22.25;55.79;94971.94;5061691;28;20290;-74
2021/05/27 06:33:30;;;;;;;10.37;8.60;;;;;;;22.28;54.50;94965.97;5057163;28;20298;-74
2021/05/27 06:35:58;;;;;;;11.30;9.30;;;;;;;22.53;53.96;94973.75;5053102;28;20204;-74
2021/05/27 06:38:25;;;;;;;9.97;8.23;;;;;;;21.69;53.23;94959.91;5066874;28;20599;-74
2021/05/27 06:40:52;;;;;;;10.67;8.67;;;;;;;22.11;54.26;94958.88;5053446;28;20270;-73
2021/05/27 06:43:19;;;;;;;12.10;9.40;;;;;;;22.21;54.87;94947.78;5052741;28;20197;-74
2021/05/27 06:45:51;;;;;;;16.40;8.80;;;;;;;22.49;53.21;94953.38;5061513;28;20207;-73
2021/05/27 06:48:18;;;;;;;11.03;8.37;;;;;;;22.75;53.66;94953.94;5058418;28;20197;-74
2021/05/27 06:50:45;;;;;;;11.17;9.63;;;;;;;22.88;54.38;94942.94;5073114;28;20283;-74
2021/05/27 06:53:15;;;;;;;16.40;8.57;;;;;;;22.85;53.90;94948.94;5060392;28;20705;-73
2021/05/27 06:55:44;;;;;;;10.57;7.47;;;;;;;22.66;52.08;94956.69;5052484;28;20207;-74
2021/05/27 06:58:12;;;;;;;13.23;8.73;;;;;;;22.78;51.90;94947.94;5052697;28;21037;-73
2021/05/27 07:00:40;;;;;;;9.57;8.20;;;;;;;22.75;52.18;94937.91;5067359;28;20560;-73
2021/05/27 07:03:07;;;;;;;15.47;8.97;;;;;;;22.88;51.50;94926.91;5052439;28;20193;-74
2021/05/27 07:05:35;;;;;;;10.80;9.70;;;;;;;23.01;52.77;94941.06;5052515;28;20218;-74
2021/05/27 07:08:04;;;;;;;16.70;9.73;;;;;;;23.11;52.70;94948.66;5052043;28;20196;-74
2021/05/27 07:10:31;;;;;;;11.57;9.10;;;;;;;23.12;52.86;94942.97;5061146;28;20188;-74
2021/05/27 07:13:01;;;;;;;14.03;9.13;;;;;;;23.09;50.93;94938.31;5057672;28;20196;-75
2021/05/27 07:15:28;;;;;;;16.07;9.67;;;;;;;23.34;51.61;94944.47;5071766;28;20227;-73
2021/05/27 07:17:57;;;;;;;11.53;9.60;;;;;;;23.19;51.22;94947.00;5059229;28;20204;-73
2021/05/27 07:20:25;;;;;;;15.63;9.87;;;;;;;23.55;51.20;94939.00;5066319;28;20235;-74
2021/05/27 07:22:53;;;;;;;9.90;8.90;;;;;;;23.54;52.49;94954.28;5063954;28;20670;-73
2021/05/27 07:25:22;;;;;;;11.93;8.90;;;;;;;23.61;51.59;94945.72;5072872;28;20637;-74
2021/05/27 07:27:51;;;;;;;24.30;10.23;;;;;;;23.93;50.90;94944.75;5061722;28;20670;-74
2021/05/27 07:30:21;;;;;;;10.57;9.33;;;;;;;24.13;51.18;94938.50;5051573;28;20228;-74
2021/05/27 07:32:48;;;;;;;14.10;9.00;;;;;;;24.07;50.56;94937.16;5061941;28;20665;-74
2021/05/27 07:35:15;;;;;;;12.10;9.40;;;;;;;24.30;48.98;94932.88;5057642;28;20700;-75
2021/05/27 07:37:42;;;;;;;12.20;8.43;;;;;;;24.21;50.32;94926.88;5072094;28;20194;-74
2021/05/27 07:40:10;;;;;;;12.50;8.30;;;;;;;24.08;49.18;94898.59;5057349;28;20690;-74
2021/05/27 07:42:38;;;;;;;10.17;6.53;;;;;;;24.21;49.21;94929.56;5072605;28;20249;-74
2021/05/27 07:45:06;;;;;;;11.30;7.53;;;;;;;24.53;49.04;94925.84;5071259;28;20623;-73
2021/05/27 07:47:34;;;;;;;9.80;7.43;;;;;;;24.02;47.41;94924.03;5070497;28;20194;-74
2021/05/27 07:50:04;;;;;;;10.60;7.20;;;;;;;24.17;48.40;94912.59;5071658;28;20214;-73
2021/05/27 07:52:33;;;;;;;11.77;7.73;;;;;;;24.50;49.22;94925.75;5072329;28;20184;-74
2021/05/27 07:55:01;;;;;;;10.10;8.23;;;;;;;24.41;48.50;94928.59;5070592;28;20210;-74
2021/05/27 07:57:33;;;;;;;12.80;7.93;;;;;;;24.60;48.05;94926.03;5058157;28;20196;-75
2021/05/27 08:00:00;;;;;;;11.97;7.47;;;;;;;24.79;47.01;94933.44;5071625;28;20215;-73
2021/05/27 08:02:27;;;;;;;8.87;7.73;;;;;;;24.08;46.60;94911.97;5057436;28;20224;-77
2021/05/27 08:04:54;;;;;;;12.37;6.93;;;;;;;24.67;46.34;94920.84;5067301;28;20561;-73
2021/05/27 08:07:21;;;;;;;11.63;7.30;;;;;;;24.73;46.11;94921.41;5051900;28;20207;-73
2021/05/27 08:09:48;;;;;;;10.40;7.20;;;;;;;25.22;47.02;94916.53;5065164;28;20196;-73
2021/05/27 08:12:15;;;;;;;11.27;7.80;;;;;;;25.11;47.93;94916.25;5051379;28;20200;-74
2021/05/27 08:14:41;;;;;;;10.13;8.47;;;;;;;25.27;47.26;94917.06;5051431;28;20200;-73
2021/05/27 08:17:09;;;;;;;9.63;8.73;;;;;;;25.27;47.16;94910.91;5064281;28;20254;-74
2021/05/27 08:19:35;;;;;;;10.03;7.20;;;;;;;25.37;44.66;94908.47;5063372;28;20219;-74
2021/05/27 08:22:03;;;;;;;10.33;8.30;;;;;;;25.38;46.62;94911.97;5070085;28;20188;-74
2021/05/27 08:24:31;;;;;;;14.20;8.60;;;;;;;25.34;45.77;94894.97;5059666;28;20193;-73
2021/05/27 08:26:58;;;;;;;11.77;8.40;;;;;;;25.27;45.26;94895.59;5065014;28;20276;-75
2021/05/27 08:29:25;;;;;;;8.80;7.90;;;;;;;25.18;45.73;94891.53;5050234;28;20224;-76
2021/05/27 08:31:52;;;;;;;10.67;8.60;;;;;;;25.41;45.34;94893.28;5065118;28;20696;-74
2021/05/27 08:34:19;;;;;;;10.67;8.60;;;;;;;25.56;46.87;94889.00;5050237;28;20193;-74
2021/05/27 08:36:46;;;;;;;14.33;9.07;;;;;;;25.97;45.12;94891.81;5054212;28;20223;-73
2021/05/27 08:39:15;;;;;;;9.37;8.27;;;;;;;26.16;45.57;94885.72;5070616;28;20365;-73
2021/05/27 08:41:42;;;;;;;11.77;8.07;;;;;;;26.01;44.24;94875.78;5070681;28;20223;-73
2021/05/27 08:44:10;;;;;;;15.63;8.23;;;;;;;26.17;45.58;94873.06;5062478;28;20303;-74
2021/05/27 08:46:37;;;;;;;14.50;7.60;;;;;;;26.13;45.01;94877.59;5065438;28;20199;-75
2021/05/27 08:49:05;;;;;;;9.40;7.13;;;;;;;26.30;43.32;94883.31;5070102;28;20196;-73
2021/05/27 08:51:35;;;;;;;7.93;6.90;;;;;;;26.23;43.07;94867.06;5070821;28;20612;-74
2021/05/27 08:54:03;;;;;;;10.50;6.97;;;;;;;26.49;42.23;94883.31;5069858;28;20196;-74
2021/05/27 08:56:31;;;;;;;8.40;7.60;;;;;;;26.33;43.99;94885.28;5070569;28;20215;-74
2021/05/27 08:58:57;;;;;;;10.83;7.70;;;;;;;25.99;43.01;94873.47;5065875;28;20188;-70
2021/05/27 09:01:25;;;;;;;10.30;7.83;;;;;;;26.31;42.93;94873.34;5051208;28;20196;-73
2021/05/27 09:03:55;;;;;;;11.07;8.10;;;;;;;26.44;44.95;94867.44;5064255;28;20200;-74
2021/05/27 09:06:23;;;;;;;9.90;8.73;;;;;;;26.44;45.88;94872.81;5063660;28;20200;-73
2021/05/27 09:09:10;;;;;;;10.20;9.20;;;;;;;26.53;43.92;94875.31;5050185;28;20370;-76
2021/05/27 09:11:38;;;;;;;15.77;9.07;;;;;;;26.51;44.98;94856.84;5064682;28;20279;-73
2021/05/27 09:14:06;;;;;;;14.50;9.77;;;;;;;26.60;45.86;94865.47;5050670;28;20188;-74
2021/05/27 09:16:34;;;;;;;14.07;9.47;;;;;;;26.68;45.97;94848.34;5050879;28;20195;-74
2021/05/27 09:19:17;;;;;;;15.80;9.03;;;;;;;26.97;45.88;94858.44;5058220;28;20200;-73
2021/05/27 09:21:44;;;;;;;11.80;7.80;;;;;;;26.86;41.56;94845.97;5067131;28;20196;-73
2021/05/27 09:24:11;;;;;;;9.93;7.67;;;;;;;26.38;42.43;94843.91;5049466;28;20195;-74
2021/05/27 09:26:55;;;;;;;11.60;7.30;;;;;;;26.70;43.51;94853.34;5063983;28;20580;-75
2021/05/27 09:29:23;;;;;;;11.97;7.70;;;;;;;26.95;43.76;94855.31;5049653;28;20236;-74
2021/05/27 09:32:06;;;;;;;8.73;7.77;;;;;;;27.11;42.36;94849.06;5050052;28;20203;-73
2021/05/27 09:34:52;;;;;;;10.40;7.47;;;;;;;26.76;43.77;94839.28;5049349;28;20200;-75
2021/05/27 09:37:29;;;;;;;13.17;7.73;;;;;;;26.80;44.88;94829.38;5057790;28;20270;-73
2021/05/27 09:40:02;;;;;;;10.40;7.37;;;;;;;27.12;42.69;94831.75;5069485;28;20311;-74
2021/05/27 09:42:29;;;;;;;10.20;7.00;;;;;;;27.15;41.60;94820.28;5069879;28;20211;-74
2021/05/27 09:44:56;;;;;;;8.40;6.97;;;;;;;27.21;40.93;94813.47;5068844;28;20187;-74
2021/05/27 09:47:34;;;;;;;7.43;6.40;;;;;;;27.51;42.95;94822.38;5057292;28;20219;-74
2021/05/27 09:50:06;;;;;;;13.93;7.60;;;;;;;27.55;42.43;94820.53;5069022;28;20199;-74
2021/05/27 09:52:45;;;;;;;8.77;6.50;;;;;;;27.30;41.86;94808.63;5070113;28;20227;-73
2021/05/27 09:55:14;;;;;;;11.27;6.63;;;;;;;27.18;42.24;94824.94;5054286;28;20282;-72
2021/05/27 09:57:43;;;;;;;11.93;7.20;;;;;;;27.14;42.86;94816.03;5049575;28;20200;-73
2021/05/27 10:00:22;;;;;;;8.23;6.03;;;;;;;27.02;42.29;94812.41;5063064;28;20226;-74
2021/05/27 10:02:50;;;;;;;12.83;6.77;;;;;;;26.65;43.49;94814.09;5057835;28;20195;-74
2021/05/27 10:05:19;;;;;;;10.17;6.90;;;;;;;26.07;43.54;94830.66;5068278;28;20250;-73
2021/05/27 10:07:50;;;;;;;9.17;6.57;;;;;;;26.49;43.80;94824.19;5069501;28;20218;-74
2021/05/27 10:10:38;;;;;;;10.30;5.67;;;;;;;26.68;43.12;94820.66;5061089;28;20193;-73
2021/05/27 10:13:07;;;;;;;9.23;5.80;;;;;;;26.40;42.41;94818.25;5050511;28;20299;-75
2021/05/27 10:15:34;;;;;;;9.90;5.77;;;;;;;27.03;42.62;94815.88;5068515;28;20206;-74
2021/05/27 10:18:05;;;;;;;8.57;5.43;;;;;;;27.36;41.16;94804.47;5069567;28;20721;-72
2021/05/27 10:20:33;;;;;;;7.83;5.80;;;;;;;27.40;38.61;94800.72;5063127;28;20216;-73
2021/05/27 10:23:04;;;;;;;7.07;5.33;;;;;;;27.89;38.78;94784.41;5048915;28;20797;-74
2021/05/27 10:25:32;;;;;;;10.50;4.83;;;;;;;28.36;37.90;94798.03;5063540;28;20564;-75
2021/05/27 10:28:08;;;;;;;6.07;5.10;;;;;;;28.40;36.62;94771.91;5048742;28;20201;-74
2021/05/27 10:30:41;;;;;;;8.10;5.23;;;;;;;28.31;37.54;94784.91;5063247;28;20250;-74
2021/05/27 10:33:17;;;;;;;7.30;4.43;;;;;;;28.46;35.55;94781.22;5061646;28;20670;-74
2021/05/27 10:35:49;;;;;;;11.03;4.43;;;;;;;28.80;35.84;94780.00;5049867;28;20220;-74
2021/05/27 10:38:37;;;;;;;6.23;4.97;;;;;;;28.75;34.72;94782.25;5064848;28;20257;-72
2021/05/27 10:41:13;;;;;;;11.83;5.77;;;;;;;29.27;35.95;94781.16;5058427;28;20224;-72
2021/05/27 10:43:58;;;;;;;8.03;4.93;;;;;;;29.44;36.54;94785.84;5053473;28;20672;-74
2021/05/27 10:46:29;;;;;;;10.30;4.83;;;;;;;29.14;36.39;94788.78;5069501;28;20703;-74
2021/05/27 10:48:57;;;;;;;13.93;4.80;;;;;;;28.66;33.94;94771.81;5069602;28;20196;-72
2021/05/27 10:54:08;;;;;;;7.53;4.23;;;;;;;28.90;34.52;94778.53;5071964;28;20283;-72
2021/05/27 10:56:37;;;;;;;9.27;5.17;;;;;;;28.70;34.45;94786.06;5072942;28;20210;-74
2021/05/27 10:59:09;;;;;;;8.33;4.60;;;;;;;28.18;35.09;94764.75;5071085;28;20226;-72
2021/05/27 11:01:37;;;;;;;7.67;4.30;;;;;;;28.08;34.67;94796.97;5073034;28;20238;-74
2021/05/27 11:04:28;;;;;;;9.93;4.90;;;;;;;27.96;34.44;94795.28;5058097;28;20206;-74
2021/05/27 11:07:14;;;;;;;10.77;4.60;;;;;;;27.14;34.90;94787.22;5053053;28;20201;-74
2021/05/27 11:09:42;;;;;;;9.60;4.43;;;;;;;27.47;34.66;94797.34;5052251;28;20770;-73
2021/05/27 11:12:18;;;;;;;10.70;4.63;;;;;;;27.65;34.45;94785.66;5052467;28;20207;-73
2021/05/27 11:14:52;;;;;;;6.50;4.33;;;;;;;27.69;33.89;94780.31;5051898;28;20265;-75
2021/05/27 11:17:27;;;;;;;10.77;4.40;;;;;;;28.29;34.41;94778.31;5061062;28;20290;-74
2021/05/27 11:20:07;;;;;;;6.47;3.87;;;;;;;28.29;31.77;94760.25;5057394;28;20208;-72
2021/05/27 11:22:35;;;;;;;9.03;3.63;;;;;;;28.50;30.72;94771.22;5072450;28;20283;-74
2021/05/27 11:27:51;;;;;;;8.47;3.43;;;;;;;28.36;27.76;94759.53;5073035;28;20199;-74
2021/05/27 11:30:27;;;;;;;4.47;3.10;;;;;;;28.27;28.58;94745.59;5068787;28;20312;-73
2021/05/27 11:32:54;;;;;;;12.77;3.73;;;;;;;28.41;29.16;94751.88;5051934;28;20200;-73
2021/05/27 11:35:26;;;;;;;8.43;2.90;;;;;;;27.85;28.41;94745.88;5067976;28;20601;-74
2021/05/27 11:37:55;;;;;;;10.67;4.40;;;;;;;27.95;31.61;94751.44;5072207;28;20329;-71
2021/05/27 11:40:31;;;;;;;7.47;4.80;;;;;;;27.80;34.01;94738.16;5066793;28;20226;-73
2021/05/27 11:42:58;;;;;;;7.70;4.70;;;;;;;27.69;35.64;94758.78;5064685;28;20187;-73
2021/05/27 11:45:27;;;;;;;9.37;5.20;;;;;;;27.80;35.08;94748.91;5067193;28;20184;-73
2021/05/27 11:50:49;;;;;;;6.20;5.20;;;;;;;27.81;35.08;94755.84;5052396;28;20239;-72
2021/05/27 11:53:23;;;;;;;7.37;5.00;;;;;;;27.41;35.20;94753.06;5064627;28;20207;-73
2021/05/27 11:55:55;;;;;;;9.70;5.83;;;;;;;27.52;35.07;94753.94;5057819;28;20267;-73